Time;durP1;ratioP1;P1;durP2;ratioP2;P2;SDS_P1;SDS_P2;PMS_P1;PMS_P2;Temp;Humidity;BMP_temperature;BMP_pressure;BME280_temperature;BME280_humidity;BME280_pressure;Samples;Min_cycle;Max_cycle;Signal;HPM_P1;HPM_P2
2021/08/09 00:00:16;;;;;;;15.60;4.00;;;15.40;99.90;;;;;;4989192;28;25084;-66
2021/08/09 00:02:42;;;;;;;21.65;3.63;;;15.40;99.90;;;;;;4988802;28;25070;-65
2021/08/09 00:05:08;;;;;;;20.02;3.55;;;15.40;99.90;;;;;;4989329;28;25130;-65
2021/08/09 00:07:34;;;;;;;18.90;3.60;;;15.40;99.90;;;;;;4989038;28;25109;-64
2021/08/09 00:09:59;;;;;;;20.27;4.13;;;15.40;99.90;;;;;;4988526;28;25087;-66
2021/08/09 00:12:25;;;;;;;12.95;3.47;;;15.40;99.90;;;;;;4988228;28;25107;-66
2021/08/09 00:14:51;;;;;;;18.17;3.58;;;15.30;99.90;;;;;;4986880;28;25079;-65
2021/08/09 00:17:16;;;;;;;14.13;3.53;;;15.30;99.90;;;;;;4988273;28;25052;-66
2021/08/09 00:19:42;;;;;;;19.77;3.30;;;15.40;99.90;;;;;;4988530;28;25058;-66
2021/08/09 00:22:07;;;;;;;18.95;4.28;;;15.30;99.90;;;;;;4989283;28;25124;-65
2021/08/09 00:24:33;;;;;;;17.08;3.80;;;15.30;99.90;;;;;;4985603;28;25076;-64
2021/08/09 00:26:58;;;;;;;15.18;3.25;;;15.30;99.90;;;;;;4988603;28;25095;-65
2021/08/09 00:29:24;;;;;;;20.13;4.00;;;15.30;99.90;;;;;;4986465;28;25094;-65
2021/08/09 00:31:49;;;;;;;21.60;4.05;;;15.30;99.90;;;;;;4987175;28;25098;-65
2021/08/09 00:34:15;;;;;;;21.73;4.53;;;15.30;99.90;;;;;;4988392;28;25084;-66
2021/08/09 00:36:41;;;;;;;17.92;3.88;;;15.30;99.90;;;;;;4986676;28;25080;-66
2021/08/09 00:39:06;;;;;;;18.60;3.90;;;15.30;99.90;;;;;;4988037;28;25124;-65
2021/08/09 00:41:32;;;;;;;14.70;3.22;;;15.30;99.90;;;;;;4986455;28;25157;-65
2021/08/09 00:43:57;;;;;;;19.48;3.70;;;15.30;99.90;;;;;;4986875;28;25120;-65
2021/08/09 00:46:23;;;;;;;18.05;3.97;;;15.30;99.90;;;;;;4988086;28;25062;-65
2021/08/09 00:48:48;;;;;;;17.98;4.28;;;15.30;99.90;;;;;;4985550;28;25105;-66
2021/08/09 00:51:14;;;;;;;13.02;3.67;;;15.20;99.90;;;;;;4987243;28;25068;-66
2021/08/09 00:53:40;;;;;;;13.30;3.78;;;15.20;99.90;;;;;;4981637;28;25094;-64
2021/08/09 00:56:06;;;;;;;14.45;4.20;;;15.20;99.90;;;;;;4990687;28;25072;-66
2021/08/09 00:58:33;;;;;;;20.95;4.18;;;15.20;99.90;;;;;;4990571;28;25113;-66
2021/08/09 01:00:58;;;;;;;24.92;4.43;;;15.10;99.90;;;;;;4989429;28;25094;-65
2021/08/09 01:03:24;;;;;;;18.85;4.38;;;15.10;99.90;;;;;;4988917;28;25114;-65
2021/08/09 01:05:50;;;;;;;24.85;4.63;;;15.10;99.90;;;;;;4986257;28;25061;-66
2021/08/09 01:08:49;;;;;;;20.23;4.28;;;15.10;99.90;;;;;;4986931;28;25152;-66
2021/08/09 01:11:26;;;;;;;24.17;3.95;;;15.10;99.90;;;;;;4986912;28;25070;-64
2021/08/09 01:14:21;;;;;;;17.75;4.82;;;15.00;99.90;;;;;;4986894;28;25154;-65
2021/08/09 01:16:48;;;;;;;20.40;4.57;;;15.00;99.90;;;;;;4986634;28;25088;-65
2021/08/09 01:19:32;;;;;;;16.40;3.63;;;15.00;99.90;;;;;;4984900;28;25088;-65
2021/08/09 01:22:34;;;;;;;16.17;3.92;;;15.00;99.90;;;;;;4986083;28;25066;-65
2021/08/09 01:25:19;;;;;;;17.23;4.10;;;15.00;99.90;;;;;;4988887;28;25072;-65
2021/08/09 01:27:48;;;;;;;18.85;3.20;;;14.90;99.90;;;;;;4986357;28;25134;-65
2021/08/09 01:30:15;;;;;;;18.50;3.65;;;14.90;99.90;;;;;;4987338;28;25093;-64
2021/08/09 01:32:43;;;;;;;20.30;4.38;;;14.90;99.90;;;;;;4986823;28;25089;-66
2021/08/09 01:35:10;;;;;;;17.75;3.53;;;14.90;99.90;;;;;;4978660;28;25072;-66
2021/08/09 01:37:39;;;;;;;19.75;3.88;;;14.90;99.90;;;;;;4984462;28;25103;-66
2021/08/09 01:40:09;;;;;;;17.00;3.95;;;14.90;99.90;;;;;;4986405;28;25069;-66
2021/08/09 01:42:37;;;;;;;24.98;4.13;;;14.90;99.90;;;;;;4986634;28;25065;-65
2021/08/09 01:45:05;;;;;;;20.17;3.83;;;15.00;99.90;;;;;;4986658;28;25123;-66
2021/08/09 01:47:34;;;;;;;25.95;4.55;;;15.00;99.90;;;;;;4986051;28;25084;-65
2021/08/09 01:50:01;;;;;;;23.23;4.70;;;15.00;99.90;;;;;;4987588;28;25067;-65
2021/08/09 01:52:27;;;;;;;21.40;4.10;;;15.00;99.90;;;;;;4985666;28;25104;-65
2021/08/09 01:54:53;;;;;;;22.08;4.38;;;15.00;99.90;;;;;;4986585;28;25066;-66
2021/08/09 01:57:19;;;;;;;20.90;4.32;;;15.00;99.90;;;;;;4986609;28;25056;-65
2021/08/09 01:59:46;;;;;;;17.90;4.13;;;15.10;99.90;;;;;;4986317;28;25135;-65
2021/08/09 02:02:11;;;;;;;17.38;3.50;;;15.00;99.90;;;;;;4985878;28;25136;-65
2021/08/09 02:04:37;;;;;;;18.27;3.10;;;15.10;99.90;;;;;;4985855;28;25063;-66
2021/08/09 02:07:03;;;;;;;19.38;3.92;;;15.10;99.90;;;;;;4986339;28;25054;-66
2021/08/09 02:09:29;;;;;;;20.42;4.28;;;15.10;99.90;;;;;;4985492;28;25077;-66
2021/08/09 02:12:02;;;;;;;21.58;4.05;;;15.10;99.90;;;;;;4986480;28;25074;-65
2021/08/09 02:14:33;;;;;;;18.15;4.35;;;15.10;99.90;;;;;;4986424;28;25088;-65
2021/08/09 02:17:10;;;;;;;11.98;4.13;;;15.10;99.90;;;;;;4986312;28;25096;-66
2021/08/09 02:20:01;;;;;;;17.80;4.13;;;15.00;99.90;;;;;;4986117;28;25085;-66
2021/08/09 02:22:37;;;;;;;17.83;4.40;;;15.00;99.90;;;;;;4988259;28;25070;-64
2021/08/09 02:25:12;;;;;;;20.38;4.35;;;14.90;99.90;;;;;;4994921;28;25107;-64
2021/08/09 02:27:46;;;;;;;20.10;4.63;;;14.90;99.90;;;;;;5002611;28;25056;-65
2021/08/09 02:30:16;;;;;;;27.77;4.03;;;14.90;99.90;;;;;;4989072;28;25164;-65
2021/08/09 02:32:43;;;;;;;14.77;4.40;;;15.00;99.90;;;;;;4991027;28;25057;-64
2021/08/09 02:35:10;;;;;;;22.27;4.05;;;15.00;99.90;;;;;;4990616;28;25078;-65
2021/08/09 02:37:37;;;;;;;18.00;4.45;;;15.00;99.90;;;;;;4989216;28;25087;-63
2021/08/09 02:40:04;;;;;;;19.88;4.28;;;15.00;99.90;;;;;;4988520;28;25048;-66
2021/08/09 02:42:30;;;;;;;16.02;3.88;;;15.00;99.90;;;;;;4991198;28;25059;-65
2021/08/09 02:44:56;;;;;;;20.65;4.15;;;15.00;99.90;;;;;;4988504;28;25070;-64
2021/08/09 02:47:24;;;;;;;18.00;4.15;;;15.00;99.90;;;;;;4989962;28;25065;-65
2021/08/09 02:49:50;;;;;;;24.35;4.40;;;15.00;99.90;;;;;;4989117;28;25081;-66
2021/08/09 02:52:19;;;;;;;19.50;3.88;;;15.00;99.90;;;;;;4990137;28;25068;-65
2021/08/09 02:54:47;;;;;;;16.42;4.03;;;15.10;99.90;;;;;;4988588;28;25141;-66
2021/08/09 02:57:14;;;;;;;21.33;4.80;;;15.00;99.90;;;;;;4990087;28;25073;-66
2021/08/09 02:59:40;;;;;;;22.17;3.97;;;15.00;99.90;;;;;;4989729;28;25071;-66
2021/08/09 03:02:07;;;;;;;20.85;4.45;;;15.00;99.90;;;;;;4987727;28;25061;-65
2021/08/09 03:04:35;;;;;;;18.38;3.60;;;15.00;99.90;;;;;;4989748;28;25134;-65
2021/08/09 03:07:05;;;;;;;16.67;3.10;;;15.00;99.90;;;;;;4988870;28;25076;-65
2021/08/09 03:09:34;;;;;;;18.13;3.53;;;15.10;99.90;;;;;;4989862;28;25091;-65
2021/08/09 03:12:00;;;;;;;20.20;4.20;;;15.10;99.90;;;;;;4988965;28;25070;-64
2021/08/09 03:14:30;;;;;;;22.13;3.58;;;15.10;99.90;;;;;;4989625;28;25075;-65
2021/08/09 03:16:56;;;;;;;19.20;3.83;;;15.10;99.90;;;;;;4989979;28;25058;-65
2021/08/09 03:19:21;;;;;;;21.52;3.42;;;15.10;99.90;;;;;;4988450;28;25076;-66
2021/08/09 03:21:59;;;;;;;20.90;3.75;;;15.00;99.90;;;;;;4989394;28;25135;-66
2021/08/09 03:24:27;;;;;;;19.50;3.78;;;15.10;99.90;;;;;;4987660;28;25087;-66
2021/08/09 03:26:53;;;;;;;22.67;4.47;;;15.00;99.90;;;;;;4989775;28;25073;-65
2021/08/09 03:29:19;;;;;;;18.95;4.00;;;15.10;99.90;;;;;;4983255;28;25069;-65
2021/08/09 03:31:45;;;;;;;19.67;4.00;;;15.10;99.90;;;;;;4990893;28;25076;-65
2021/08/09 03:34:11;;;;;;;10.77;2.88;;;15.10;99.90;;;;;;4990472;28;25136;-66
2021/08/09 03:36:41;;;;;;;14.18;4.18;;;15.10;99.90;;;;;;5001370;28;25070;-66
2021/08/09 03:39:08;;;;;;;17.13;4.22;;;15.10;99.90;;;;;;4988031;28;25088;-64
2021/08/09 03:41:34;;;;;;;21.88;3.95;;;15.20;99.90;;;;;;4991199;28;25066;-66
2021/08/09 03:44:00;;;;;;;19.25;4.38;;;15.20;99.90;;;;;;4990781;28;25094;-65
2021/08/09 03:46:25;;;;;;;18.23;4.38;;;15.10;99.90;;;;;;4990416;28;25085;-65
2021/08/09 03:48:51;;;;;;;20.83;3.97;;;15.00;99.90;;;;;;4988811;28;25129;-65
2021/08/09 03:51:16;;;;;;;23.42;5.38;;;15.00;99.90;;;;;;4989250;28;24983;-65
2021/08/09 03:53:42;;;;;;;23.92;4.72;;;15.00;99.90;;;;;;4988880;28;25065;-65
2021/08/09 03:56:07;;;;;;;18.20;4.15;;;15.00;99.90;;;;;;4991542;28;25056;-66
2021/08/09 03:58:33;;;;;;;20.25;3.67;;;15.00;99.90;;;;;;4990992;28;25110;-65
2021/08/09 04:00:59;;;;;;;18.88;4.47;;;15.00;99.90;;;;;;4981984;28;25079;-63
2021/08/09 04:03:24;;;;;;;18.25;3.70;;;15.00;99.90;;;;;;4989111;28;25069;-65
2021/08/09 04:05:50;;;;;;;20.40;4.13;;;14.90;99.90;;;;;;4993202;28;25091;-65
2021/08/09 04:08:15;;;;;;;14.82;3.92;;;14.90;99.90;;;;;;4992689;28;25162;-66
2021/08/09 04:10:44;;;;;;;25.48;3.85;;;15.00;99.90;;;;;;4989375;28;25066;-65
2021/08/09 04:13:10;;;;;;;14.55;3.72;;;15.00;99.90;;;;;;4985393;28;25056;-64
2021/08/09 04:15:35;;;;;;;20.25;4.10;;;14.90;99.90;;;;;;4988300;28;25074;-65
2021/08/09 04:18:01;;;;;;;19.17;4.00;;;14.90;99.90;;;;;;4987884;28;25077;-64
2021/08/09 04:20:27;;;;;;;20.23;3.83;;;14.90;99.90;;;;;;4990739;28;25154;-64
2021/08/09 04:22:52;;;;;;;13.70;3.85;;;15.00;99.90;;;;;;4998031;28;25073;-65
2021/08/09 04:25:18;;;;;;;22.15;5.05;;;14.90;99.90;;;;;;4987885;28;25120;-65
2021/08/09 04:27:43;;;;;;;14.98;3.35;;;14.90;99.90;;;;;;4987611;28;25097;-66
2021/08/09 04:30:09;;;;;;;18.00;3.47;;;14.90;99.90;;;;;;4987937;28;25075;-64
2021/08/09 04:32:42;;;;;;;14.82;3.33;;;14.90;99.90;;;;;;4983310;28;25164;-65
2021/08/09 04:35:08;;;;;;;;;;;14.80;99.90;;;;;;4987709;28;25085;-66
2021/08/09 04:37:34;;;;;;;21.88;4.50;;;14.90;99.90;;;;;;4988256;28;25062;-64
2021/08/09 04:40:00;;;;;;;16.70;4.30;;;14.80;99.90;;;;;;4985115;28;25135;-64
2021/08/09 04:42:26;;;;;;;14.45;3.85;;;14.80;99.90;;;;;;4987246;28;25153;-65
2021/08/09 04:44:51;;;;;;;19.58;4.28;;;14.80;99.90;;;;;;4986457;28;25088;-66
2021/08/09 04:47:17;;;;;;;19.98;4.95;;;14.80;99.90;;;;;;4987770;28;25154;-67
2021/08/09 04:49:42;;;;;;;20.95;4.72;;;14.70;99.90;;;;;;4988357;28;25168;-65
2021/08/09 04:52:08;;;;;;;14.27;4.63;;;14.70;99.90;;;;;;4988231;28;25075;-65
2021/08/09 04:54:34;;;;;;;14.68;4.25;;;14.60;99.90;;;;;;4991310;28;25070;-64
2021/08/09 04:57:00;;;;;;;17.33;4.70;;;14.60;99.90;;;;;;4994752;28;25101;-65
2021/08/09 04:59:25;;;;;;;15.57;4.50;;;14.60;99.90;;;;;;4991172;28;25104;-65
2021/08/09 05:01:51;;;;;;;18.92;4.40;;;14.60;99.90;;;;;;4993651;28;25116;-65
2021/08/09 05:04:17;;;;;;;11.82;4.55;;;14.60;99.90;;;;;;4986447;28;25073;-63
2021/08/09 05:06:42;;;;;;;19.35;4.47;;;14.60;99.90;;;;;;4986816;28;25051;-64
2021/08/09 05:09:08;;;;;;;17.85;4.75;;;14.60;99.90;;;;;;4988047;28;25100;-65
2021/08/09 05:11:33;;;;;;;19.95;4.65;;;14.60;99.90;;;;;;4988235;28;25059;-65
2021/08/09 05:13:59;;;;;;;16.98;4.43;;;14.50;99.90;;;;;;4987714;28;25100;-64
2021/08/09 05:16:25;;;;;;;27.15;4.85;;;14.60;99.90;;;;;;4983232;28;25062;-65
2021/08/09 05:18:52;;;;;;;14.50;4.75;;;14.60;99.90;;;;;;4995981;28;25067;-66
2021/08/09 05:21:17;;;;;;;17.48;4.20;;;14.70;99.90;;;;;;4985895;28;25077;-64
2021/08/09 05:23:45;;;;;;;17.63;4.40;;;14.70;99.90;;;;;;4991177;28;25076;-66
2021/08/09 05:26:11;;;;;;;24.50;5.13;;;14.80;99.90;;;;;;4980417;28;25100;-65
2021/08/09 05:28:37;;;;;;;19.08;5.00;;;14.70;99.90;;;;;;4985757;28;25067;-64
2021/08/09 05:31:04;;;;;;;11.70;4.25;;;14.80;99.90;;;;;;4987488;28;25084;-65
2021/08/09 05:33:31;;;;;;;16.92;4.07;;;14.70;99.90;;;;;;4988415;28;25085;-64
2021/08/09 05:35:56;;;;;;;23.58;4.97;;;14.70;99.90;;;;;;4986621;28;25068;-65
2021/08/09 05:38:22;;;;;;;14.57;4.30;;;14.70;99.90;;;;;;4986578;28;25127;-68
2021/08/09 05:40:47;;;;;;;20.58;5.13;;;14.70;99.90;;;;;;4986882;28;25052;-65
2021/08/09 05:43:13;;;;;;;22.58;4.65;;;14.70;99.90;;;;;;4988495;28;25141;-66
2021/08/09 05:45:38;;;;;;;13.30;3.92;;;14.70;99.90;;;;;;4992024;28;25143;-64
2021/08/09 05:48:04;;;;;;;14.73;3.97;;;14.70;99.90;;;;;;4986484;28;25064;-66
2021/08/09 05:50:31;;;;;;;10.43;4.20;;;14.70;99.90;;;;;;4986573;28;25160;-64
2021/08/09 05:52:57;;;;;;;15.43;4.32;;;14.80;99.90;;;;;;4986668;28;25067;-65
2021/08/09 05:55:25;;;;;;;14.52;4.63;;;14.80;99.90;;;;;;4988853;28;25132;-64
2021/08/09 05:57:51;;;;;;;14.70;4.05;;;14.80;99.90;;;;;;4988763;28;25107;-66
2021/08/09 06:00:17;;;;;;;18.73;3.45;;;14.80;99.90;;;;;;4985839;28;25087;-65
2021/08/09 06:02:43;;;;;;;13.95;4.18;;;14.90;99.90;;;;;;4989064;28;25159;-68
2021/08/09 06:05:10;;;;;;;21.92;4.85;;;14.90;99.90;;;;;;4995829;28;25093;-65
2021/08/09 06:07:36;;;;;;;11.98;3.83;;;14.90;99.90;;;;;;4984282;28;25091;-66
2021/08/09 06:10:02;;;;;;;18.95;4.18;;;15.10;99.90;;;;;;4985035;28;25148;-66
2021/08/09 06:12:28;;;;;;;15.25;5.03;;;15.20;99.90;;;;;;4994777;28;25047;-65
2021/08/09 06:14:53;;;;;;;18.80;4.05;;;15.20;99.90;;;;;;4982531;28;25099;-64
2021/08/09 06:17:19;;;;;;;18.63;4.28;;;15.30;99.90;;;;;;4994823;28;25055;-66
2021/08/09 06:19:44;;;;;;;11.75;4.40;;;15.40;99.90;;;;;;4993873;28;25068;-65
2021/08/09 06:22:10;;;;;;;16.17;3.90;;;15.50;99.90;;;;;;4992331;28;25146;-66
2021/08/09 06:24:35;;;;;;;13.43;3.08;;;15.60;99.90;;;;;;4985164;28;25058;-65
2021/08/09 06:27:01;;;;;;;10.85;3.97;;;15.70;99.90;;;;;;4985487;28;25060;-66
2021/08/09 06:29:26;;;;;;;12.18;3.35;;;15.70;99.90;;;;;;4990581;28;25157;-66
2021/08/09 06:31:52;;;;;;;15.60;4.57;;;15.80;99.90;;;;;;4987183;28;25154;-66
2021/08/09 06:34:18;;;;;;;14.07;3.70;;;16.00;99.90;;;;;;4986672;28;25092;-66
2021/08/09 06:36:43;;;;;;;16.25;3.65;;;16.10;99.90;;;;;;4986228;28;25079;-65
2021/08/09 06:39:11;;;;;;;12.38;3.30;;;16.10;99.90;;;;;;4984352;28;25096;-66
2021/08/09 06:41:37;;;;;;;9.90;2.85;;;16.20;99.90;;;;;;4985612;28;25182;-66
2021/08/09 06:44:02;;;;;;;16.85;3.97;;;16.20;99.90;;;;;;4989899;28;25127;-65
2021/08/09 06:46:28;;;;;;;11.18;3.00;;;16.30;99.90;;;;;;4985465;28;25057;-66
2021/08/09 06:48:54;;;;;;;9.57;2.95;;;16.30;99.90;;;;;;4983837;28;25084;-66
2021/08/09 06:51:19;;;;;;;11.45;3.47;;;16.50;99.90;;;;;;4982619;28;25072;-66
2021/08/09 06:53:45;;;;;;;10.52;3.58;;;16.50;99.90;;;;;;4986520;28;25076;-67
2021/08/09 06:56:15;;;;;;;16.33;2.95;;;16.60;99.90;;;;;;4986675;28;25107;-65
2021/08/09 06:58:41;;;;;;;8.13;3.15;;;16.70;99.90;;;;;;4987498;28;25157;-66
2021/08/09 07:01:06;;;;;;;5.75;2.53;;;16.80;99.90;;;;;;4985972;28;25062;-66
2021/08/09 07:03:32;;;;;;;10.30;2.97;;;16.80;99.90;;;;;;4986861;28;25074;-66
2021/08/09 07:05:58;;;;;;;16.25;2.80;;;16.80;99.90;;;;;;4987117;28;25080;-65
2021/08/09 07:08:23;;;;;;;9.65;2.38;;;17.00;99.90;;;;;;4990720;28;25069;-66
2021/08/09 07:10:51;;;;;;;12.25;2.70;;;17.10;99.90;;;;;;4989175;28;25076;-65
2021/08/09 07:13:17;;;;;;;9.98;2.00;;;17.30;99.90;;;;;;4991837;28;25104;-66
2021/08/09 07:15:42;;;;;;;8.30;2.55;;;17.40;99.90;;;;;;4989811;28;25111;-66
2021/08/09 07:18:08;;;;;;;8.45;2.75;;;17.50;99.90;;;;;;4988800;28;25078;-65
2021/08/09 07:20:33;;;;;;;15.05;2.70;;;17.50;99.90;;;;;;4988338;28;25073;-66
2021/08/09 07:22:59;;;;;;;16.92;2.72;;;17.50;99.90;;;;;;4990145;28;25062;-67
2021/08/09 07:25:25;;;;;;;9.88;3.15;;;17.50;99.90;;;;;;4988920;28;25116;-67
2021/08/09 07:27:50;;;;;;;10.43;2.70;;;17.50;99.90;;;;;;4989285;28;25072;-66
2021/08/09 07:30:17;;;;;;;14.38;2.70;;;17.30;99.90;;;;;;4991007;28;25150;-67
2021/08/09 07:32:43;;;;;;;9.43;2.63;;;17.20;99.90;;;;;;4990666;28;25106;-65
2021/08/09 07:35:10;;;;;;;10.93;3.22;;;17.20;99.90;;;;;;4990395;28;25178;-66
2021/08/09 07:37:36;;;;;;;10.18;2.35;;;17.10;99.90;;;;;;4989374;28;25068;-66
2021/08/09 07:40:02;;;;;;;9.65;2.80;;;17.10;99.90;;;;;;4991287;28;25068;-67
2021/08/09 07:42:27;;;;;;;10.07;2.60;;;17.10;99.90;;;;;;4989751;28;25173;-66
2021/08/09 07:44:53;;;;;;;11.27;2.63;;;17.10;99.90;;;;;;4989857;28;25118;-66
2021/08/09 07:47:19;;;;;;;10.10;3.00;;;17.10;99.90;;;;;;4989822;28;25090;-65
2021/08/09 07:49:45;;;;;;;10.45;2.65;;;17.10;99.90;;;;;;4988678;28;25095;-66
2021/08/09 07:52:10;;;;;;;11.10;3.20;;;17.00;99.90;;;;;;5000122;28;25122;-65
2021/08/09 07:54:36;;;;;;;7.55;2.95;;;17.10;99.90;;;;;;4991548;28;25147;-66
2021/08/09 07:57:04;;;;;;;9.85;2.85;;;17.00;99.90;;;;;;4989180;28;25072;-67
2021/08/09 07:59:33;;;;;;;9.30;3.15;;;17.10;99.90;;;;;;4984145;28;25138;-65
2021/08/09 08:02:03;;;;;;;14.20;3.13;;;17.20;99.90;;;;;;4988930;28;25058;-66
2021/08/09 08:04:30;;;;;;;14.48;3.03;;;17.00;99.90;;;;;;4993524;28;25059;-65
2021/08/09 08:06:55;;;;;;;9.77;2.97;;;17.00;99.90;;;;;;4988831;28;25076;-65
2021/08/09 08:09:21;;;;;;;10.10;2.83;;;17.00;99.90;;;;;;4991133;28;25138;-66
2021/08/09 08:11:47;;;;;;;6.22;2.53;;;16.90;99.90;;;;;;4989681;28;25101;-66
2021/08/09 08:14:12;;;;;;;6.60;2.25;;;17.00;99.90;;;;;;4988128;28;25061;-66
2021/08/09 08:16:38;;;;;;;9.18;2.90;;;17.10;99.90;;;;;;4993585;28;25093;-66
2021/08/09 08:19:04;;;;;;;11.63;2.60;;;17.20;99.90;;;;;;4989066;28;25138;-66
2021/08/09 08:21:30;;;;;;;13.88;2.58;;;17.30;99.90;;;;;;4993878;28;25069;-65
2021/08/09 08:23:56;;;;;;;5.18;2.40;;;17.20;99.90;;;;;;4993926;28;25107;-64
2021/08/09 08:26:22;;;;;;;8.93;2.78;;;17.30;99.90;;;;;;4989208;28;25062;-66
2021/08/09 08:28:47;;;;;;;11.13;3.00;;;17.30;99.90;;;;;;4989515;28;25058;-67
2021/08/09 08:31:13;;;;;;;6.85;2.42;;;17.30;99.90;;;;;;4989647;28;25086;-65
2021/08/09 08:33:38;;;;;;;13.85;2.83;;;17.30;99.90;;;;;;4987948;28;25100;-66
2021/08/09 08:36:04;;;;;;;10.93;2.95;;;17.40;99.90;;;;;;4991149;28;25057;-67
2021/08/09 08:38:29;;;;;;;5.93;2.63;;;17.60;99.90;;;;;;4998250;28;25065;-66
2021/08/09 08:40:57;;;;;;;8.45;2.45;;;17.50;99.90;;;;;;4988238;28;25084;-67
2021/08/09 08:43:26;;;;;;;7.00;2.80;;;17.60;99.90;;;;;;4989722;28;25116;-65
2021/08/09 08:46:10;;;;;;;5.10;1.90;;;17.60;99.90;;;;;;4989500;28;25067;-64
2021/08/09 08:48:37;;;;;;;8.75;2.47;;;17.50;99.90;;;;;;4997411;28;25083;-65
2021/08/09 08:51:04;;;;;;;9.85;2.60;;;17.50;99.90;;;;;;4998233;28;25123;-66
2021/08/09 08:53:31;;;;;;;8.20;2.65;;;17.50;99.90;;;;;;4996650;28;25149;-67
2021/08/09 08:55:57;;;;;;;6.55;2.63;;;17.60;99.90;;;;;;4992802;28;25128;-65
2021/08/09 08:58:23;;;;;;;11.80;2.83;;;17.70;99.90;;;;;;4987978;28;25070;-65
2021/08/09 09:00:50;;;;;;;8.07;2.78;;;17.80;99.90;;;;;;4989533;28;25094;-66
2021/08/09 09:03:16;;;;;;;7.40;2.13;;;17.70;99.90;;;;;;4987217;28;25139;-65
2021/08/09 09:05:58;;;;;;;9.82;2.83;;;17.80;99.90;;;;;;4988310;28;25073;-65
2021/08/09 09:08:44;;;;;;;6.50;2.72;;;17.80;99.90;;;;;;4987203;28;25137;-65
2021/08/09 09:11:11;;;;;;;17.48;3.28;;;17.70;99.90;;;;;;4988120;28;25086;-66
2021/08/09 09:13:57;;;;;;;4.38;2.03;;;17.70;99.90;;;;;;4986752;28;25062;-66
2021/08/09 09:16:23;;;;;;;7.72;2.63;;;17.80;99.90;;;;;;4987925;28;25067;-66
2021/08/09 09:18:49;;;;;;;10.57;2.88;;;18.00;99.90;;;;;;4973726;28;25133;-67
2021/08/09 09:21:33;;;;;;;7.32;2.70;;;18.00;99.90;;;;;;4990857;28;25134;-66
2021/08/09 09:24:16;;;;;;;5.75;2.30;;;18.10;99.90;;;;;;4975009;28;25088;-68
2021/08/09 09:26:44;;;;;;;7.90;2.78;;;18.20;99.90;;;;;;4986901;28;25118;-66
2021/08/09 09:29:16;;;;;;;8.98;2.30;;;18.10;99.90;;;;;;4987947;28;25151;-65
2021/08/09 09:31:44;;;;;;;3.47;2.20;;;18.10;99.90;;;;;;4986473;28;25099;-66
2021/08/09 09:34:15;;;;;;;6.97;2.63;;;18.00;99.90;;;;;;4986847;28;25055;-66
2021/08/09 09:36:55;;;;;;;6.47;2.10;;;18.20;99.90;;;;;;4987421;28;25067;-65
2021/08/09 09:39:40;;;;;;;9.57;2.60;;;18.30;99.90;;;;;;4987093;28;25060;-66
2021/08/09 09:42:07;;;;;;;8.65;2.50;;;18.30;99.90;;;;;;4987701;28;25082;-66
2021/08/09 09:44:34;;;;;;;6.90;2.13;;;18.10;99.90;;;;;;4987224;28;25116;-66
2021/08/09 09:47:20;;;;;;;4.97;2.03;;;18.10;99.90;;;;;;4997598;28;25153;-65
2021/08/09 09:49:54;;;;;;;3.72;2.25;;;18.20;99.90;;;;;;4986231;28;25068;-65
2021/08/09 09:52:45;;;;;;;6.93;2.45;;;18.20;99.90;;;;;;4987741;28;25092;-66
2021/08/09 09:55:13;;;;;;;5.80;2.08;;;18.10;99.90;;;;;;4980357;28;25106;-69
2021/08/09 09:57:40;;;;;;;8.02;2.25;;;18.20;99.90;;;;;;4995689;28;25089;-68
2021/08/09 10:00:10;;;;;;;8.15;2.55;;;18.20;99.90;;;;;;4977929;28;25095;-68
2021/08/09 10:02:35;;;;;;;5.68;2.05;;;18.30;99.90;;;;;;4995809;28;25061;-65
2021/08/09 10:05:02;;;;;;;6.70;2.10;;;18.40;99.90;;;;;;4995370;28;25064;-68
2021/08/09 10:07:29;;;;;;;4.85;2.20;;;18.40;99.90;;;;;;4985784;28;25123;-67
2021/08/09 10:09:55;;;;;;;6.75;2.22;;;18.20;99.90;;;;;;4986349;28;25074;-67
2021/08/09 10:12:28;;;;;;;6.53;2.15;;;18.20;99.90;;;;;;4987714;28;25051;-65
2021/08/09 10:14:54;;;;;;;6.85;2.38;;;18.20;99.90;;;;;;4997736;28;25059;-65
2021/08/09 10:17:24;;;;;;;7.40;2.17;;;18.20;99.90;;;;;;4994251;28;25095;-68
2021/08/09 10:19:52;;;;;;;5.25;2.20;;;18.20;99.90;;;;;;4997931;28;25051;-67
2021/08/09 10:22:20;;;;;;;5.13;2.45;;;18.30;99.90;;;;;;4997301;28;25063;-66
2021/08/09 10:24:48;;;;;;;3.63;1.92;;;18.20;99.90;;;;;;4988235;28;25057;-66
2021/08/09 10:27:14;;;;;;;3.22;1.60;;;18.20;99.90;;;;;;4985094;28;25106;-67
2021/08/09 10:29:58;;;;;;;9.80;2.30;;;18.20;99.90;;;;;;4985258;28;25162;-67
2021/08/09 10:32:24;;;;;;;11.00;2.08;;;18.20;99.90;;;;;;4987083;28;25168;-67
2021/08/09 10:34:49;;;;;;;8.73;2.38;;;18.10;99.90;;;;;;4986088;28;25117;-65
2021/08/09 10:37:20;;;;;;;8.15;2.45;;;18.20;99.90;;;;;;4986392;28;25073;-66
2021/08/09 10:39:45;;;;;;;9.18;2.42;;;18.40;99.90;;;;;;4972807;28;25082;-66
2021/08/09 10:42:33;;;;;;;5.15;2.03;;;18.50;99.90;;;;;;4986333;28;25083;-66
2021/08/09 10:45:00;;;;;;;9.10;2.10;;;18.60;99.90;;;;;;4992025;28;25150;-65
2021/08/09 10:47:48;;;;;;;5.97;1.98;;;18.60;99.90;;;;;;4990228;28;25109;-67
2021/08/09 10:50:40;;;;;;;2.75;1.70;;;18.60;99.90;;;;;;4989886;28;25080;-65
2021/08/09 10:53:24;;;;;;;4.25;1.70;;;18.50;99.90;;;;;;4992112;28;25074;-67
2021/08/09 10:55:54;;;;;;;8.20;2.28;;;18.50;99.90;;;;;;5005298;28;25091;-68
2021/08/09 10:58:45;;;;;;;4.22;1.80;;;18.50;99.90;;;;;;4991492;28;25102;-67
2021/08/09 11:01:15;;;;;;;5.50;2.05;;;18.70;99.90;;;;;;4991416;28;25110;-68
2021/08/09 11:04:03;;;;;;;3.28;1.50;;;18.50;99.90;;;;;;4989874;28;25069;-66
2021/08/09 11:06:52;;;;;;;8.85;1.75;;;18.40;99.90;;;;;;4990637;28;25110;-67
2021/08/09 11:09:29;;;;;;;4.25;1.83;;;18.40;99.90;;;;;;4992504;28;25055;-68
2021/08/09 11:12:08;;;;;;;5.13;2.10;;;18.40;99.90;;;;;;4993126;28;25058;-67
2021/08/09 11:14:59;;;;;;;4.93;2.20;;;18.40;99.90;;;;;;4993329;28;25055;-69
2021/08/09 11:17:48;;;;;;;8.18;2.33;;;18.40;99.90;;;;;;4982783;28;25125;-68
2021/08/09 11:20:22;;;;;;;4.40;2.17;;;18.60;99.90;;;;;;4991018;28;25074;-67
2021/08/09 11:23:01;;;;;;;2.90;1.90;;;18.90;99.90;;;;;;4992774;28;25078;-66
2021/08/09 11:25:33;;;;;;;4.75;1.83;;;19.00;99.90;;;;;;4989738;28;25108;-67
2021/08/09 11:28:01;;;;;;;3.72;1.85;;;19.50;99.90;;;;;;4989765;28;25050;-68
2021/08/09 11:30:50;;;;;;;6.35;1.70;;;19.60;99.90;;;;;;4990750;28;25089;-67
2021/08/09 11:33:27;;;;;;;2.92;1.88;;;19.40;99.90;;;;;;4986887;28;25075;-67
2021/08/09 11:35:58;;;;;;;4.53;1.98;;;19.40;99.90;;;;;;4990318;28;25139;-66
2021/08/09 11:38:24;;;;;;;5.22;2.10;;;19.40;99.90;;;;;;4990735;28;25067;-66
2021/08/09 11:40:52;;;;;;;7.28;1.90;;;19.60;99.90;;;;;;4990680;28;24832;-67
2021/08/09 11:43:27;;;;;;;4.65;2.38;;;19.40;99.90;;;;;;4992326;28;25080;-68
2021/08/09 11:45:54;;;;;;;2.35;1.58;;;19.30;99.90;;;;;;4993350;28;25070;-67
2021/08/09 11:48:28;;;;;;;9.40;2.33;;;19.60;99.90;;;;;;4989531;28;25078;-67
2021/08/09 11:50:56;;;;;;;2.20;1.63;;;19.70;99.90;;;;;;4985385;28;25091;-68
2021/08/09 11:53:24;;;;;;;3.08;1.75;;;19.80;99.90;;;;;;4989331;28;25060;-66
2021/08/09 11:55:50;;;;;;;4.03;2.00;;;19.70;99.90;;;;;;4993602;28;25116;-68
2021/08/09 11:58:29;;;;;;;7.68;1.67;;;19.80;99.90;;;;;;4990065;28;25110;-67
2021/08/09 12:00:54;;;;;;;6.00;1.55;;;19.90;99.90;;;;;;4988864;28;25147;-68
2021/08/09 12:03:22;;;;;;;3.15;1.75;;;20.10;99.90;;;;;;4988558;28;25154;-67
2021/08/09 12:05:48;;;;;;;5.40;1.77;;;20.10;99.90;;;;;;4989201;28;25100;-68
2021/08/09 12:08:14;;;;;;;3.55;1.80;;;20.30;99.90;;;;;;4988938;28;25088;-67
2021/08/09 12:10:40;;;;;;;3.03;1.85;;;20.40;99.90;;;;;;4992996;28;25103;-66
2021/08/09 12:13:22;;;;;;;2.53;1.48;;;20.60;99.90;;;;;;4979479;28;25101;-68
2021/08/09 12:16:16;;;;;;;5.00;1.38;;;20.50;99.90;;;;;;4983699;28;25068;-68
2021/08/09 12:18:55;;;;;;;2.20;1.80;;;20.60;99.90;;;;;;4985096;28;25060;-67
2021/08/09 12:21:30;;;;;;;5.05;1.67;;;20.60;99.90;;;;;;4990967;28;25080;-67
2021/08/09 12:23:58;;;;;;;8.55;1.85;;;20.80;99.90;;;;;;4987448;28;25158;-66
2021/08/09 12:26:25;;;;;;;4.70;1.48;;;20.70;99.90;;;;;;4994379;28;25097;-66
2021/08/09 12:28:56;;;;;;;4.78;1.45;;;20.70;99.90;;;;;;4988028;28;25069;-69
2021/08/09 12:31:31;;;;;;;4.53;1.83;;;21.00;99.90;;;;;;4999188;28;25061;-67
2021/08/09 12:33:58;;;;;;;3.95;1.60;;;21.00;99.90;;;;;;4992039;28;25049;-67
2021/08/09 12:36:24;;;;;;;4.75;2.00;;;21.20;99.90;;;;;;4998327;28;25100;-67
2021/08/09 12:38:49;;;;;;;4.15;1.73;;;21.10;99.90;;;;;;4998965;28;25092;-66
2021/08/09 12:41:27;;;;;;;1.95;1.42;;;21.10;99.90;;;;;;4991301;28;25128;-68
2021/08/09 12:43:52;;;;;;;4.90;1.45;;;20.90;99.90;;;;;;4988982;28;25135;-69
2021/08/09 12:46:18;;;;;;;4.78;1.70;;;20.90;99.90;;;;;;5001342;28;25076;-66
2021/08/09 12:48:51;;;;;;;5.20;1.85;;;20.90;99.90;;;;;;4987274;28;25057;-68